Pagina principale
METAR-TAF:

METAR-TAF

Aeroporti :

Rarotonga, Isole Cook

latitudine: 21-12S, longitudine: 159-49W, altezza: 7 m

Osservazione

Il bollettino è stato emesso 31 minuti fa, alle 13:00 UTC
Vento 11 kt da sud-est
Temperature 22°C
Umidità 65%
Pressione 1014 hPa
Visibilità 10 km o più
Nubi sparse ad un'altezza di 1800 ft
Nuvoloso ad un'altezza di 4500 ft

METAR: NCRG 191300Z 13011KT 9999 SCT018 BKN045 22/15 Q1014

Ora: 03:31 (13:31 UTC)

Previsione

Il bollettino è stato emesso 2 ore e 19 minuti fa, alle 11:12 UTC
Previsione valida dal 19 alle 12 UTC al 20 alle 12 UTC
Vento 12 kt da est/sud-est
Visibilità 10 km o più
Nubi sparse ad un'altezza di 1800 ft
Nuvoloso ad un'altezza di 4500 ft
Probabilità 40% :
Temporaneamente
dal 19 alle 12 UTC al 19 alle 18 UTC
Visibilità: 5000 m
Nuvoloso ad un'altezza di 1500 ft
rovesci di pioggia

TAF: NCRG 191112Z 1912/2012 12012KT 9999 SCT018 BKN045 PROB40 TEMPO 1912/1918 5000 SHRA BKN015

Osservazioni e previsioni meteorologiche di più di 4000 aeroporti (messaggi METAR e TAF).

Le stazioni disponibili sono rappresentate dai dischi gialli e rossi sulla carta.

Puntare il mouse per vedere il nome della stazione.

Clicca sopra per visualizzare le osservazioni e previsioni meteorologiche.

Per cambiare la mappa : fare clic sui pulsanti verdi con una croce nera per ingrandire, il pulsante verde con un trattino per diminuire, o sulla freccia verde per le mappe adiacenti.


METAR-TAF: